createdAt,value
2018-03-01T00:00:32.515Z,29.70
2018-03-01T00:01:32.537Z,29.00
2018-03-01T00:02:32.559Z,30.50
2018-03-01T00:03:32.579Z,29.50
2018-03-01T00:04:32.603Z,29.40
2018-03-01T00:05:32.625Z,30.00
2018-03-01T00:06:32.647Z,29.30
2018-03-01T00:07:32.669Z,28.20
2018-03-01T00:08:32.690Z,30.40
2018-03-01T00:09:32.714Z,28.70
2018-03-01T00:10:32.736Z,28.50
2018-03-01T00:11:32.758Z,29.20
2018-03-01T00:12:32.780Z,28.90
2018-03-01T00:13:32.802Z,30.50
2018-03-01T00:14:32.823Z,30.00
2018-03-01T00:15:32.846Z,30.00
2018-03-01T00:16:32.869Z,30.30
2018-03-01T00:17:32.890Z,29.00
2018-03-01T00:18:32.913Z,29.30
2018-03-01T00:19:32.932Z,29.20
2018-03-01T00:20:32.956Z,29.50
2018-03-01T00:21:32.978Z,27.90
2018-03-01T00:22:33.003Z,28.70
2018-03-01T00:23:33.022Z,30.30
2018-03-01T00:24:33.044Z,28.40
2018-03-01T00:25:33.066Z,28.70
2018-03-01T00:26:33.089Z,29.00
2018-03-01T00:27:33.110Z,30.50
2018-03-01T00:28:33.132Z,29.70
2018-03-01T00:29:33.155Z,29.50
2018-03-01T00:30:33.176Z,28.30
2018-03-01T00:31:33.198Z,29.90
2018-03-01T00:32:33.220Z,28.90
2018-03-01T00:33:33.242Z,29.10
2018-03-01T00:34:33.265Z,29.40
2018-03-01T00:35:33.284Z,28.90
2018-03-01T00:36:33.308Z,29.00
2018-03-01T00:37:33.329Z,28.50
2018-03-01T00:38:33.352Z,29.20
2018-03-01T00:39:33.374Z,28.90
2018-03-01T00:40:33.396Z,30.10
2018-03-01T00:41:33.417Z,29.30
2018-03-01T00:42:33.439Z,29.30
2018-03-01T00:43:33.461Z,28.90
2018-03-01T00:44:33.482Z,29.90
2018-03-01T00:45:33.505Z,30.50
2018-03-01T00:46:33.527Z,30.40
2018-03-01T00:47:33.547Z,27.50
2018-03-01T00:48:33.570Z,29.10
2018-03-01T00:49:33.592Z,30.60
2018-03-01T00:50:33.615Z,29.70
2018-03-01T00:51:33.634Z,28.80
2018-03-01T00:52:33.658Z,28.30
2018-03-01T00:53:33.680Z,28.10
2018-03-01T00:54:33.702Z,30.40
2018-03-01T00:55:33.724Z,27.90
2018-03-01T00:56:33.745Z,30.20
2018-03-01T00:57:33.766Z,28.10
2018-03-01T00:58:33.790Z,28.70
2018-03-01T00:59:33.810Z,29.30
2018-03-01T01:00:33.834Z,29.20
2018-03-01T01:01:33.859Z,28.90
2018-03-01T01:02:33.877Z,28.90
2018-03-01T01:03:33.897Z,28.50
2018-03-01T01:04:33.920Z,28.90
2018-03-01T01:05:33.942Z,28.90
2018-03-01T01:06:33.968Z,28.20
2018-03-01T01:07:33.986Z,28.60
2018-03-01T01:08:34.012Z,28.00
2018-03-01T01:09:34.031Z,30.40
2018-03-01T01:10:34.053Z,29.90
2018-03-01T01:11:34.074Z,28.30
2018-03-01T01:12:34.096Z,28.60
2018-03-01T01:13:34.118Z,28.40
2018-03-01T01:14:34.140Z,29.50
2018-03-01T01:15:34.162Z,29.70
2018-03-01T01:16:34.185Z,28.40
2018-03-01T01:17:34.207Z,28.40
2018-03-01T01:18:34.227Z,28.30
2018-03-01T01:19:34.251Z,28.90
2018-03-01T01:20:34.273Z,29.70
2018-03-01T01:21:34.295Z,29.10
2018-03-01T01:22:34.318Z,28.70
2018-03-01T01:23:34.340Z,28.40
2018-03-01T01:24:34.362Z,28.10
2018-03-01T01:25:34.385Z,27.10
2018-03-01T01:26:34.407Z,27.80
2018-03-01T01:27:34.429Z,29.20
2018-03-01T01:28:34.452Z,28.40
2018-03-01T01:29:34.474Z,28.90
2018-03-01T01:30:34.497Z,28.40
2018-03-01T01:31:34.519Z,28.90
2018-03-01T01:32:34.540Z,28.60
2018-03-01T01:33:34.564Z,28.90
2018-03-01T01:34:34.587Z,28.30
2018-03-01T01:35:34.607Z,29.20
2018-03-01T01:36:34.629Z,28.50
2018-03-01T01:37:34.655Z,29.10
2018-03-01T01:38:34.676Z,28.60
2018-03-01T01:39:34.698Z,28.00
2018-03-01T01:40:34.721Z,28.10
2018-03-01T01:41:34.745Z,28.20
2018-03-01T01:42:34.766Z,29.60
2018-03-01T01:43:34.787Z,28.30
2018-03-01T01:44:34.811Z,28.20
2018-03-01T01:45:34.833Z,28.30
2018-03-01T01:46:34.856Z,27.70
2018-03-01T01:47:34.877Z,28.70
2018-03-01T01:48:34.900Z,25.70
2018-03-01T01:49:34.922Z,26.70
2018-03-01T01:50:34.945Z,28.80
2018-03-01T01:51:34.966Z,27.40
2018-03-01T01:52:34.988Z,28.10
2018-03-01T01:53:35.015Z,27.40
2018-03-01T01:54:35.033Z,28.20
2018-03-01T01:55:35.054Z,29.50
2018-03-01T01:56:35.081Z,27.40
2018-03-01T01:57:35.099Z,28.40
2018-03-01T01:58:35.122Z,27.60
2018-03-01T01:59:35.146Z,27.30
2018-03-01T02:00:35.167Z,27.30
2018-03-01T02:01:35.189Z,27.10
2018-03-01T02:02:35.211Z,26.90
2018-03-01T02:03:35.232Z,27.70
2018-03-01T02:04:35.254Z,26.80
2018-03-01T02:05:35.277Z,27.80
2018-03-01T02:06:35.299Z,26.80
2018-03-01T02:07:35.321Z,29.00
2018-03-01T02:08:35.344Z,27.30
2018-03-01T02:09:35.366Z,28.00
2018-03-01T02:10:35.388Z,26.40
2018-03-01T02:11:35.410Z,28.40
2018-03-01T02:12:35.431Z,27.10
2018-03-01T02:13:35.454Z,28.30
2018-03-01T02:14:35.478Z,26.60
2018-03-01T02:15:35.497Z,28.60
2018-03-01T02:16:35.521Z,27.70
2018-03-01T02:17:35.543Z,26.70
2018-03-01T02:18:35.567Z,26.90
2018-03-01T02:19:35.588Z,27.30
2018-03-01T02:20:35.609Z,28.20
2018-03-01T02:21:35.631Z,26.80
2018-03-01T02:22:35.654Z,27.70
2018-03-01T02:23:35.676Z,25.60
2018-03-01T02:24:35.698Z,26.10
2018-03-01T02:25:35.720Z,26.00
2018-03-01T02:26:35.741Z,26.50
2018-03-01T02:27:35.765Z,26.00
2018-03-01T02:28:35.786Z,27.30
2018-03-01T02:29:35.809Z,26.40
2018-03-01T02:30:35.830Z,27.60
2018-03-01T02:31:35.851Z,28.10
2018-03-01T02:32:35.875Z,26.30
2018-03-01T02:33:35.896Z,26.20
2018-03-01T02:34:35.922Z,27.80
2018-03-01T02:35:35.940Z,26.80
2018-03-01T02:36:35.967Z,26.40
2018-03-01T02:37:35.983Z,27.00
2018-03-01T02:38:36.007Z,26.60
2018-03-01T02:39:36.029Z,26.40
2018-03-01T02:40:36.049Z,28.50
2018-03-01T02:41:36.077Z,27.60
2018-03-01T02:42:36.095Z,27.30
2018-03-01T02:43:36.117Z,27.70
2018-03-01T02:44:36.137Z,25.90
2018-03-01T02:45:36.161Z,27.10
2018-03-01T02:46:36.195Z,25.60
2018-03-01T02:47:36.215Z,27.30
2018-03-01T02:48:36.227Z,28.00
2018-03-01T02:49:36.249Z,26.60
2018-03-01T02:50:36.271Z,27.90
2018-03-01T02:51:36.300Z,26.70
2018-03-01T02:52:36.314Z,26.70
2018-03-01T02:53:36.336Z,26.60
2018-03-01T02:54:36.360Z,27.70
2018-03-01T02:55:36.381Z,28.00
2018-03-01T02:56:36.402Z,27.30
2018-03-01T02:57:36.423Z,27.40
2018-03-01T02:58:36.446Z,27.20
2018-03-01T02:59:36.466Z,26.50
2018-03-01T03:00:36.489Z,26.40
2018-03-01T03:01:36.513Z,27.00
2018-03-01T03:02:36.533Z,26.40
2018-03-01T03:03:36.553Z,27.30
2018-03-01T03:04:36.576Z,28.90
2018-03-01T03:05:36.599Z,28.00
2018-03-01T03:06:36.620Z,28.00
2018-03-01T03:07:36.645Z,27.30
2018-03-01T03:08:36.665Z,27.00
2018-03-01T03:09:36.686Z,26.60
2018-03-01T03:10:36.708Z,27.60
2018-03-01T03:11:36.730Z,27.90
2018-03-01T03:12:36.752Z,26.70
2018-03-01T03:13:36.775Z,26.50
2018-03-01T03:14:36.797Z,27.40
2018-03-01T03:15:36.817Z,28.40
2018-03-01T03:16:36.839Z,26.30
2018-03-01T03:17:36.860Z,27.40
2018-03-01T03:18:36.883Z,27.70
2018-03-01T03:19:36.905Z,26.90
2018-03-01T03:20:36.928Z,26.80
2018-03-01T03:21:36.950Z,27.30
2018-03-01T03:22:36.973Z,26.00
2018-03-01T03:23:36.993Z,27.10
2018-03-01T03:24:37.015Z,26.70
2018-03-01T03:25:37.038Z,27.30
2018-03-01T03:26:37.060Z,26.40
2018-03-01T03:27:37.081Z,26.70
2018-03-01T03:28:37.103Z,27.30
2018-03-01T03:29:37.125Z,26.80
2018-03-01T03:30:37.149Z,27.70
2018-03-01T03:31:37.169Z,26.20
2018-03-01T03:32:37.193Z,26.70
2018-03-01T03:33:37.214Z,26.70
2018-03-01T03:34:37.234Z,26.60
2018-03-01T03:35:37.256Z,26.00
2018-03-01T03:36:37.279Z,27.20
2018-03-01T03:37:37.302Z,26.50
2018-03-01T03:38:37.324Z,26.90
2018-03-01T03:39:37.345Z,27.60
2018-03-01T03:40:37.367Z,26.10
2018-03-01T03:41:37.390Z,27.40
2018-03-01T03:42:37.415Z,27.10
2018-03-01T03:43:37.437Z,27.80
2018-03-01T03:44:37.455Z,26.90
2018-03-01T03:45:37.478Z,28.20
2018-03-01T03:46:37.499Z,27.30
2018-03-01T03:47:37.520Z,27.00
2018-03-01T03:48:37.544Z,26.40
2018-03-01T03:49:37.567Z,27.30
2018-03-01T03:50:37.588Z,27.20
2018-03-01T03:51:37.608Z,25.60
2018-03-01T03:52:37.631Z,25.90
2018-03-01T03:53:37.653Z,26.00
2018-03-01T03:54:37.675Z,26.20
2018-03-01T03:55:37.698Z,26.10
2018-03-01T03:56:37.721Z,27.40
2018-03-01T03:57:37.741Z,26.70
2018-03-01T03:58:37.765Z,26.70
2018-03-01T03:59:37.786Z,25.70
2018-03-01T04:00:37.809Z,27.60
2018-03-01T04:01:37.831Z,26.20
2018-03-01T04:02:37.856Z,26.80
2018-03-01T04:03:37.899Z,25.90
2018-03-01T04:04:37.896Z,26.30
2018-03-01T04:05:37.919Z,28.60
2018-03-01T04:06:37.941Z,25.90
2018-03-01T04:07:37.963Z,26.30
2018-03-01T04:08:37.986Z,25.30
2018-03-01T04:09:38.007Z,26.00
2018-03-01T04:10:38.031Z,26.30
2018-03-01T04:11:38.050Z,25.40
2018-03-01T04:12:38.073Z,25.60
2018-03-01T04:13:38.124Z,28.10
2018-03-01T04:14:38.117Z,26.20
2018-03-01T04:15:38.138Z,26.70
2018-03-01T04:16:38.160Z,25.20
2018-03-01T04:17:38.186Z,25.80
2018-03-01T04:18:38.204Z,26.20
2018-03-01T04:19:38.226Z,25.30
2018-03-01T04:20:38.249Z,25.90
2018-03-01T04:21:38.271Z,26.20
2018-03-01T04:22:38.293Z,26.10
2018-03-01T04:23:38.314Z,26.90
2018-03-01T04:24:38.337Z,27.10
2018-03-01T04:25:38.358Z,26.00
2018-03-01T04:26:38.381Z,25.70
2018-03-01T04:27:38.401Z,25.60
2018-03-01T04:28:38.424Z,27.20
2018-03-01T04:29:38.447Z,25.80
2018-03-01T04:30:38.469Z,26.00
2018-03-01T04:31:38.489Z,28.00
2018-03-01T04:32:38.512Z,26.50
2018-03-01T04:33:38.535Z,25.70
2018-03-01T04:34:38.559Z,27.10
2018-03-01T04:35:38.577Z,26.40
2018-03-01T04:36:38.601Z,26.30
2018-03-01T04:37:38.623Z,26.00
2018-03-01T04:38:38.645Z,25.70
2018-03-01T04:39:38.666Z,26.40
2018-03-01T04:40:38.688Z,26.40
2018-03-01T04:41:38.730Z,25.90
2018-03-01T04:42:38.733Z,26.10
2018-03-01T04:43:38.754Z,25.80
2018-03-01T04:44:38.777Z,25.70
2018-03-01T04:45:38.799Z,24.30
2018-03-01T04:46:38.821Z,26.20
2018-03-01T04:47:38.843Z,25.50
2018-03-01T04:48:38.865Z,24.90
2018-03-01T04:49:38.886Z,24.80
2018-03-01T04:50:38.909Z,26.70
2018-03-01T04:51:38.930Z,25.60
2018-03-01T04:52:38.952Z,26.20
2018-03-01T04:53:38.975Z,25.30
2018-03-01T04:54:38.997Z,26.20
2018-03-01T04:55:39.017Z,27.20
2018-03-01T04:56:39.041Z,24.40
2018-03-01T04:57:39.063Z,24.10
2018-03-01T04:58:39.085Z,26.30
2018-03-01T04:59:39.105Z,25.40
2018-03-01T05:00:39.127Z,25.00
2018-03-01T05:01:39.150Z,26.30
2018-03-01T05:02:39.182Z,27.10
2018-03-01T05:03:39.194Z,24.90
2018-03-01T05:04:39.216Z,26.90
2018-03-01T05:05:39.238Z,25.60
2018-03-01T05:06:39.260Z,25.60
2018-03-01T05:07:39.281Z,26.00
2018-03-01T05:08:39.304Z,26.90
2018-03-01T05:09:39.324Z,25.30
2018-03-01T05:10:39.348Z,27.00
2018-03-01T05:11:39.369Z,27.10
2018-03-01T05:12:39.390Z,25.30
2018-03-01T05:13:39.413Z,25.10
2018-03-01T05:14:39.435Z,25.20
2018-03-01T05:15:39.457Z,25.40
2018-03-01T05:16:39.478Z,25.80
2018-03-01T05:17:39.501Z,26.70
2018-03-01T05:18:39.530Z,27.90
2018-03-01T05:19:39.544Z,26.80
2018-03-01T05:20:39.567Z,26.20
2018-03-01T05:21:39.589Z,24.60
2018-03-01T05:22:39.611Z,26.80
2018-03-01T05:23:39.632Z,25.30
2018-03-01T05:24:39.654Z,24.30
2018-03-01T05:25:39.677Z,26.00
2018-03-01T05:26:39.698Z,26.10
2018-03-01T05:27:39.720Z,25.50
2018-03-01T05:28:39.742Z,27.00
2018-03-01T05:29:39.764Z,26.20
2018-03-01T05:30:39.788Z,25.20
2018-03-01T05:31:39.809Z,26.30
2018-03-01T05:32:39.837Z,26.20
2018-03-01T05:33:39.853Z,26.70
2018-03-01T05:34:39.873Z,25.20
2018-03-01T05:35:39.895Z,26.00
2018-03-01T05:36:39.916Z,26.30
2018-03-01T05:37:39.938Z,25.40
2018-03-01T05:38:39.963Z,26.10
2018-03-01T05:39:39.982Z,25.30
2018-03-01T05:40:40.004Z,27.10
2018-03-01T05:41:40.028Z,25.50
2018-03-01T05:42:40.049Z,27.00
2018-03-01T05:43:40.070Z,26.60
2018-03-01T05:44:40.091Z,27.90
2018-03-01T05:45:40.114Z,26.30
2018-03-01T05:46:40.136Z,25.40
2018-03-01T05:47:40.156Z,26.60
2018-03-01T05:48:40.178Z,27.20
2018-03-01T05:49:40.200Z,26.40
2018-03-01T05:50:40.223Z,26.90
2018-03-01T05:51:40.244Z,25.80
2018-03-01T05:52:40.265Z,27.10
2018-03-01T05:53:40.288Z,26.20
2018-03-01T05:54:40.310Z,26.90
2018-03-01T05:55:40.332Z,25.60
2018-03-01T05:56:40.354Z,26.50
2018-03-01T05:57:40.376Z,27.30
2018-03-01T05:58:40.398Z,26.30
2018-03-01T05:59:40.418Z,26.50
2018-03-01T06:00:40.441Z,26.00
2018-03-01T06:01:40.464Z,25.70
2018-03-01T06:02:40.487Z,26.70
2018-03-01T06:03:40.506Z,27.40
2018-03-01T06:04:40.530Z,28.10
2018-03-01T06:05:40.549Z,29.20
2018-03-01T06:06:40.572Z,28.70
2018-03-01T06:07:40.592Z,28.50
2018-03-01T06:08:40.620Z,27.50
2018-03-01T06:09:40.637Z,27.60
2018-03-01T06:10:40.678Z,25.70
2018-03-01T06:11:40.681Z,27.60
2018-03-01T06:12:40.702Z,25.90
2018-03-01T06:13:40.724Z,27.50
2018-03-01T06:14:40.746Z,25.60
2018-03-01T06:15:40.767Z,26.90
2018-03-01T06:16:40.789Z,25.80
2018-03-01T06:17:40.811Z,26.70
2018-03-01T06:18:40.833Z,25.50
2018-03-01T06:19:40.853Z,26.20
2018-03-01T06:20:40.876Z,25.60
2018-03-01T06:21:40.898Z,27.00
2018-03-01T06:22:40.919Z,27.20
2018-03-01T06:23:40.940Z,26.60
2018-03-01T06:24:40.975Z,26.20
2018-03-01T06:25:40.984Z,26.20
2018-03-01T06:26:41.007Z,27.40
2018-03-01T06:27:41.027Z,27.20
2018-03-01T06:28:41.049Z,26.60
2018-03-01T06:29:41.072Z,26.80
2018-03-01T06:30:41.094Z,27.10
2018-03-01T06:31:41.115Z,26.50
2018-03-01T06:32:41.141Z,26.70
2018-03-01T06:33:41.158Z,28.00
2018-03-01T06:34:41.181Z,27.40
2018-03-01T06:35:41.202Z,26.40
2018-03-01T06:36:41.224Z,26.40
2018-03-01T06:37:41.259Z,27.20
2018-03-01T06:38:41.268Z,27.70
2018-03-01T06:39:41.289Z,26.80
2018-03-01T06:40:41.312Z,28.20
2018-03-01T06:41:41.333Z,25.70
2018-03-01T06:42:41.355Z,25.30
2018-03-01T06:43:41.376Z,25.90
2018-03-01T06:44:41.399Z,26.50
2018-03-01T06:45:41.421Z,27.80
2018-03-01T06:46:41.442Z,26.50
2018-03-01T06:47:41.465Z,28.70
2018-03-01T06:48:41.487Z,26.80
2018-03-01T06:49:41.508Z,28.60
2018-03-01T06:50:41.531Z,27.40
2018-03-01T06:51:41.553Z,27.70
2018-03-01T06:52:41.574Z,26.90
2018-03-01T06:53:41.595Z,27.60
2018-03-01T06:54:41.618Z,27.60
2018-03-01T06:55:41.639Z,26.60
2018-03-01T06:56:41.661Z,28.20
2018-03-01T06:57:41.688Z,27.80
2018-03-01T06:58:41.708Z,27.60
2018-03-01T06:59:41.728Z,27.30
2018-03-01T07:00:41.749Z,26.70
2018-03-01T07:01:41.770Z,27.30
2018-03-01T07:02:41.793Z,25.80
2018-03-01T07:03:41.815Z,28.60
2018-03-01T07:04:41.836Z,28.80
2018-03-01T07:05:41.891Z,27.40
2018-03-01T07:06:41.881Z,26.40
2018-03-01T07:07:41.902Z,28.00
2018-03-01T07:08:41.924Z,29.00
2018-03-01T07:09:41.946Z,27.10
2018-03-01T07:10:41.970Z,27.50
2018-03-01T07:11:41.989Z,26.10
2018-03-01T07:12:42.067Z,26.50
2018-03-01T07:13:42.037Z,25.30
2018-03-01T07:14:42.057Z,28.00
2018-03-01T07:15:42.078Z,26.50
2018-03-01T07:16:42.100Z,25.90
2018-03-01T07:17:42.122Z,27.00
2018-03-01T07:18:42.143Z,26.90
2018-03-01T07:19:42.164Z,26.30
2018-03-01T07:20:42.187Z,26.80
2018-03-01T07:21:42.209Z,25.90
2018-03-01T07:22:42.274Z,27.40
2018-03-01T07:23:42.253Z,25.40
2018-03-01T07:24:42.274Z,27.00
2018-03-01T07:25:42.296Z,27.20
2018-03-01T07:26:42.319Z,27.30
2018-03-01T07:27:42.341Z,27.80
2018-03-01T07:28:42.362Z,27.10
2018-03-01T07:29:42.384Z,26.70
2018-03-01T07:30:42.407Z,26.70
2018-03-01T07:31:42.437Z,27.50
2018-03-01T07:32:42.457Z,27.20
2018-03-01T07:33:42.471Z,27.70
2018-03-01T07:34:42.493Z,27.70
2018-03-01T07:35:42.515Z,27.70
2018-03-01T07:36:42.537Z,28.40
2018-03-01T07:37:42.559Z,28.30
2018-03-01T07:38:42.580Z,27.40
2018-03-01T07:39:42.601Z,27.90
2018-03-01T07:40:42.624Z,27.10
2018-03-01T07:41:42.645Z,28.70
2018-03-01T07:42:42.669Z,28.20
2018-03-01T07:43:42.690Z,27.70
2018-03-01T07:44:42.710Z,26.80
2018-03-01T07:45:42.734Z,26.70
2018-03-01T07:46:42.757Z,27.00
2018-03-01T07:47:42.776Z,27.50
2018-03-01T07:48:42.799Z,27.80
2018-03-01T07:49:42.822Z,27.30
2018-03-01T07:50:42.844Z,25.80
2018-03-01T07:51:42.864Z,28.90
2018-03-01T07:52:42.887Z,27.10
2018-03-01T07:53:42.909Z,28.40
2018-03-01T07:54:42.931Z,28.40
2018-03-01T07:55:42.953Z,27.60
2018-03-01T07:56:42.975Z,28.90
2018-03-01T07:57:42.997Z,27.80
2018-03-01T07:58:43.020Z,27.20
2018-03-01T07:59:43.042Z,28.60
2018-03-01T08:00:43.065Z,27.20
2018-03-01T08:01:43.085Z,27.60
2018-03-01T08:02:43.109Z,29.00
2018-03-01T08:03:43.129Z,28.80
2018-03-01T08:04:43.153Z,28.90
2018-03-01T08:05:43.195Z,26.90
2018-03-01T08:06:43.197Z,27.10
2018-03-01T08:07:43.219Z,27.40
2018-03-01T08:08:43.242Z,27.90
2018-03-01T08:09:43.264Z,28.70
2018-03-01T08:10:43.287Z,27.90
2018-03-01T08:11:43.308Z,27.80
2018-03-01T08:12:43.343Z,28.00
2018-03-01T08:13:43.353Z,27.60
2018-03-01T08:14:43.377Z,27.60
2018-03-01T08:15:43.399Z,28.80
2018-03-01T08:16:43.465Z,28.70
2018-03-01T08:17:43.444Z,27.00
2018-03-01T08:18:43.467Z,28.40
2018-03-01T08:19:43.492Z,28.00
2018-03-01T08:20:43.516Z,28.50
2018-03-01T08:21:43.534Z,29.40
2018-03-01T08:22:43.557Z,27.70
2018-03-01T08:23:43.580Z,28.50
2018-03-01T08:24:43.603Z,27.90
2018-03-01T08:25:43.625Z,28.70
2018-03-01T08:26:43.648Z,28.30
2018-03-01T08:27:43.671Z,29.70
2018-03-01T08:28:43.694Z,27.40
2018-03-01T08:29:43.720Z,27.30
2018-03-01T08:30:43.740Z,28.40
2018-03-01T08:31:43.762Z,28.60
2018-03-01T08:32:43.786Z,28.00
2018-03-01T08:33:43.809Z,29.40
2018-03-01T08:34:43.833Z,30.10
2018-03-01T08:35:43.854Z,30.10
2018-03-01T08:36:43.876Z,28.80
2018-03-01T08:37:43.900Z,28.40
2018-03-01T08:38:43.932Z,29.10
2018-03-01T08:39:43.947Z,29.60
2018-03-01T08:40:43.970Z,29.10
2018-03-01T08:41:43.993Z,28.80
2018-03-01T08:42:44.016Z,28.80
2018-03-01T08:43:44.039Z,27.80
2018-03-01T08:44:44.063Z,28.70
2018-03-01T08:45:44.087Z,28.90
2018-03-01T08:46:44.109Z,28.10
2018-03-01T08:47:44.133Z,29.90
2018-03-01T08:48:44.201Z,28.70
2018-03-01T08:49:44.183Z,29.40
2018-03-01T08:50:44.235Z,29.20
2018-03-01T08:51:44.228Z,29.00
2018-03-01T08:52:44.252Z,27.90
2018-03-01T08:53:44.277Z,28.10
2018-03-01T08:54:44.301Z,27.90
2018-03-01T08:55:44.324Z,28.90
2018-03-01T08:56:44.348Z,28.50
2018-03-01T08:57:44.376Z,28.30
2018-03-01T08:58:44.396Z,28.00
2018-03-01T08:59:44.420Z,27.90
2018-03-01T09:00:44.445Z,29.30
2018-03-01T09:01:44.469Z,28.30
2018-03-01T09:02:44.493Z,30.50
2018-03-01T09:03:44.520Z,29.40
2018-03-01T09:04:44.540Z,29.80
2018-03-01T09:05:44.566Z,29.70
2018-03-01T09:06:44.592Z,28.30
2018-03-01T09:07:44.615Z,29.60
2018-03-01T09:08:44.642Z,30.20
2018-03-01T09:09:44.668Z,29.30
2018-03-01T09:10:44.688Z,29.90
2018-03-01T09:11:44.712Z,29.70
2018-03-01T09:12:44.737Z,28.70
2018-03-01T09:13:44.763Z,29.80
2018-03-01T09:14:44.791Z,29.80
2018-03-01T09:15:44.812Z,29.50
2018-03-01T09:16:44.836Z,29.90
2018-03-01T09:17:44.862Z,29.70
2018-03-01T09:18:44.887Z,28.00
2018-03-01T09:19:44.912Z,29.30
2018-03-01T09:20:44.937Z,29.40
2018-03-01T09:21:44.963Z,29.50
2018-03-01T09:22:44.988Z,29.40
2018-03-01T09:23:45.012Z,29.00
2018-03-01T09:24:45.050Z,30.50
2018-03-01T09:25:45.063Z,29.30
2018-03-01T09:26:45.089Z,29.50
2018-03-01T09:27:45.113Z,29.30
2018-03-01T09:28:45.139Z,28.80
2018-03-01T09:29:45.166Z,28.30
2018-03-01T09:30:45.192Z,27.90
2018-03-01T09:31:45.216Z,29.50
2018-03-01T09:32:45.243Z,29.50
2018-03-01T09:33:45.268Z,30.30
2018-03-01T09:34:45.296Z,27.40
2018-03-01T09:35:45.320Z,29.00
2018-03-01T09:36:45.346Z,28.90
2018-03-01T09:37:45.373Z,29.90
2018-03-01T09:38:45.402Z,29.70
2018-03-01T09:39:45.424Z,29.80
2018-03-01T09:40:45.452Z,30.10
2018-03-01T09:41:45.479Z,28.90
2018-03-01T09:42:45.504Z,30.20
2018-03-01T09:43:45.531Z,28.70
2018-03-01T09:44:45.567Z,29.70
2018-03-01T09:45:45.586Z,30.80
2018-03-01T09:46:45.624Z,29.80
2018-03-01T09:47:45.639Z,30.40
2018-03-01T09:48:45.667Z,31.00
2018-03-01T09:49:45.694Z,30.70
2018-03-01T09:50:45.725Z,32.10
2018-03-01T09:51:45.751Z,30.70
2018-03-01T09:52:45.778Z,29.10
2018-03-01T09:53:45.805Z,30.50
2018-03-01T09:54:45.834Z,30.00
2018-03-01T09:55:45.859Z,30.30
2018-03-01T09:56:45.888Z,31.20
2018-03-01T09:57:45.918Z,31.00
2018-03-01T09:58:45.945Z,30.90
2018-03-01T09:59:45.974Z,30.60
2018-03-01T10:00:46.000Z,30.40
2018-03-01T10:01:46.028Z,30.90
2018-03-01T10:02:46.056Z,30.70
2018-03-01T10:03:46.084Z,31.10
2018-03-01T10:04:46.112Z,30.50
2018-03-01T10:05:46.138Z,29.90
2018-03-01T10:06:46.168Z,30.20
2018-03-01T10:07:46.195Z,30.30
2018-03-01T10:08:46.223Z,31.50
2018-03-01T10:09:46.251Z,29.60
2018-03-01T10:10:46.278Z,30.90
2018-03-01T10:11:46.307Z,31.10
2018-03-01T10:12:46.336Z,34.60
2018-03-01T10:13:46.364Z,30.20
2018-03-01T10:14:46.391Z,30.70
2018-03-01T10:15:46.416Z,30.80
2018-03-01T10:16:46.445Z,30.60
2018-03-01T10:17:46.472Z,31.10
2018-03-01T10:18:46.499Z,30.20
2018-03-01T10:19:46.527Z,31.00
2018-03-01T10:20:46.553Z,31.40
2018-03-01T10:21:46.581Z,32.20
2018-03-01T10:22:46.610Z,37.00
2018-03-01T10:23:46.634Z,32.10
2018-03-01T10:24:46.663Z,29.20
2018-03-01T10:25:46.689Z,30.20
2018-03-01T10:26:46.716Z,30.50
2018-03-01T10:27:46.751Z,31.40
2018-03-01T10:28:46.768Z,33.90
2018-03-01T10:29:46.797Z,33.80
2018-03-01T10:30:46.858Z,31.50
2018-03-01T10:31:46.850Z,31.10
2018-03-01T10:32:46.878Z,31.00
2018-03-01T10:33:46.907Z,30.10
2018-03-01T10:34:46.935Z,29.90
2018-03-01T10:35:46.959Z,31.50
2018-03-01T10:36:46.986Z,32.60
2018-03-01T10:37:47.014Z,30.90
2018-03-01T10:38:47.041Z,29.90
2018-03-01T10:39:47.067Z,30.70
2018-03-01T10:40:47.095Z,31.40
2018-03-01T10:41:47.122Z,31.00
2018-03-01T10:42:47.151Z,30.40
2018-03-01T10:43:47.177Z,31.10
2018-03-01T10:44:47.204Z,29.10
2018-03-01T10:45:47.233Z,30.40
2018-03-01T10:46:47.259Z,30.60
2018-03-01T10:47:47.286Z,30.00
2018-03-01T10:48:47.314Z,30.90
2018-03-01T10:49:47.343Z,31.40
2018-03-01T10:50:47.368Z,30.40
2018-03-01T10:51:47.400Z,30.70
2018-03-01T10:52:47.422Z,30.70
2018-03-01T10:53:47.450Z,30.60
2018-03-01T10:54:47.482Z,28.80
2018-03-01T10:55:47.505Z,31.80
2018-03-01T10:56:47.531Z,31.90
2018-03-01T10:57:47.558Z,31.10
2018-03-01T10:58:47.587Z,31.70
2018-03-01T10:59:47.614Z,31.60
2018-03-01T11:00:47.639Z,32.10
2018-03-01T11:01:47.668Z,32.00
2018-03-01T11:02:47.696Z,31.40
2018-03-01T11:03:47.722Z,32.70
2018-03-01T11:04:47.749Z,31.70
2018-03-01T11:05:47.777Z,31.50
2018-03-01T11:06:47.805Z,32.10
2018-03-01T11:07:47.832Z,30.50
2018-03-01T11:08:47.860Z,31.40
2018-03-01T11:09:47.890Z,31.20
2018-03-01T11:10:47.919Z,31.80
2018-03-01T11:11:47.942Z,32.80
2018-03-01T11:12:47.970Z,30.90
2018-03-01T11:13:47.998Z,30.30
2018-03-01T11:14:48.026Z,33.40
2018-03-01T11:15:48.053Z,32.00
2018-03-01T11:16:48.085Z,31.30
2018-03-01T11:17:48.109Z,31.90
2018-03-01T11:18:48.137Z,32.30
2018-03-01T11:19:48.164Z,32.20
2018-03-01T11:20:48.192Z,31.40
2018-03-01T11:21:48.220Z,31.50
2018-03-01T11:22:48.249Z,32.70
2018-03-01T11:23:48.275Z,31.60
2018-03-01T11:24:48.305Z,31.20
2018-03-01T11:25:48.334Z,32.10
2018-03-01T11:26:48.362Z,32.50
2018-03-01T11:27:48.389Z,32.50
2018-03-01T11:28:48.417Z,33.00
2018-03-01T11:29:48.447Z,34.00
2018-03-01T11:30:48.476Z,34.50
2018-03-01T11:31:48.505Z,35.40
2018-03-01T11:32:48.533Z,36.40
2018-03-01T11:33:48.562Z,34.80
2018-03-01T11:34:48.641Z,36.10
2018-03-01T11:35:48.620Z,33.90
2018-03-01T11:36:48.648Z,32.90
2018-03-01T11:37:48.681Z,33.60
2018-03-01T11:38:48.709Z,34.10
2018-03-01T11:39:48.737Z,34.70
2018-03-01T11:40:48.767Z,34.70
2018-03-01T11:41:48.797Z,34.30
2018-03-01T11:42:48.826Z,33.10
2018-03-01T11:43:48.856Z,35.70
2018-03-01T11:44:48.886Z,36.60
2018-03-01T11:45:48.915Z,37.10
2018-03-01T11:46:48.945Z,36.20
2018-03-01T11:47:48.975Z,35.80
2018-03-01T11:48:49.004Z,36.30
2018-03-01T11:49:49.035Z,37.20
2018-03-01T11:50:49.064Z,34.90
2018-03-01T11:51:49.095Z,33.10
2018-03-01T11:52:49.124Z,32.70
2018-03-01T11:53:49.154Z,33.30
2018-03-01T11:54:49.184Z,32.60
2018-03-01T11:55:49.213Z,33.20
2018-03-01T11:56:49.243Z,33.80
2018-03-01T11:57:49.273Z,33.90
2018-03-01T11:58:49.302Z,33.50
2018-03-01T11:59:49.331Z,32.00
2018-03-01T12:00:49.359Z,34.20
2018-03-01T12:01:49.390Z,33.20
2018-03-01T12:02:49.420Z,32.60
2018-03-01T12:03:49.449Z,31.80
2018-03-01T12:04:49.478Z,32.00
2018-03-01T12:05:49.507Z,32.30
2018-03-01T12:06:49.537Z,31.50
2018-03-01T12:07:49.571Z,33.80
2018-03-01T12:08:49.595Z,32.00
2018-03-01T12:09:49.624Z,32.10
2018-03-01T12:10:49.653Z,32.40
2018-03-01T12:11:49.682Z,33.20
2018-03-01T12:12:49.714Z,32.00
2018-03-01T12:13:49.741Z,32.70
2018-03-01T12:14:49.771Z,31.40
2018-03-01T12:15:49.798Z,32.80
2018-03-01T12:16:49.832Z,31.60
2018-03-01T12:17:49.857Z,31.30
2018-03-01T12:18:49.889Z,32.00
2018-03-01T12:19:49.916Z,33.60
2018-03-01T12:20:49.945Z,33.50
2018-03-01T12:21:49.974Z,33.10
2018-03-01T12:22:50.005Z,32.10
2018-03-01T12:23:50.034Z,31.90
2018-03-01T12:24:50.063Z,32.20
2018-03-01T12:25:50.095Z,32.90
2018-03-01T12:26:50.125Z,31.80
2018-03-01T12:27:50.154Z,32.10
2018-03-01T12:28:50.184Z,32.10
2018-03-01T12:29:50.216Z,34.10
2018-03-01T12:30:50.248Z,33.80
2018-03-01T12:31:50.277Z,33.20
2018-03-01T12:32:50.308Z,33.00
2018-03-01T12:33:50.339Z,33.10
2018-03-01T12:34:50.370Z,32.00
2018-03-01T12:35:50.401Z,32.40
2018-03-01T12:36:50.433Z,32.10
2018-03-01T12:37:50.468Z,32.70
2018-03-01T12:38:50.494Z,33.60
2018-03-01T12:39:50.528Z,33.70
2018-03-01T12:40:50.557Z,32.50
2018-03-01T12:41:50.589Z,33.30
2018-03-01T12:42:50.620Z,33.00
2018-03-01T12:43:50.650Z,32.10
2018-03-01T12:44:50.681Z,32.60
2018-03-01T12:45:50.713Z,33.50
2018-03-01T12:46:50.744Z,32.50
2018-03-01T12:47:50.774Z,32.40
2018-03-01T12:48:50.811Z,32.80
2018-03-01T12:49:50.835Z,32.70
2018-03-01T12:50:50.867Z,33.30
2018-03-01T12:51:50.896Z,32.30
2018-03-01T12:52:50.927Z,33.60